Tiempo atmosférico en la estación meteorológica de Boadilla Fuente San Esteban, Salamanca (785 m.)



Fecha
DESCASC
Temp. máxima en grados centígrados (hora)
DESCASC
Temp. mínima en grados centígrados (hora)
DESCASC
Temp. media en grados centígrados
DESCASC
Racha de viento máxima en m/sg (hora)
DESCASC
Velocidad máxima media en intervalos de 10 minutos(hora)
DESCASC
Precipitaciones diarias en mm
DESCASC
Precipitaciones de 00:00 a 06:00 en mm
DESCASC
Precipitaciones de 06:00 a 12:00 en mm
DESCASC
Precipitaciones de 12:00 a 18:00 en mm
DESCASC
Precipitaciones de 18:00 a 24:00 en mm
DESCASC
02-07-2020 25.8 (17:40) 12.3 (06:50) 19 9.44 (18:50) 6.11 (19:20) 0 0 0 0 0
01-07-2020 29.9 (18:00) 15.1 (06:50) 22.5 10.28 (18:10) 6.67 (18:20) 0 0 0 0 0
30-06-2020 33.3 (17:10) 15.2 (00:00) 24.2 11.11 (14:50) 5.83 (16:30) 0 0 0 0 0
29-06-2020 32 (18:00) 12.4 (00:00) 22.2 7.22 (17:30) 4.17 (17:30) 0 0 0 0 0
28-06-2020 28.7 (18:00) 12.4 (00:00) 20.6 8.89 (13:20) 5.28 (21:10) 0 0 0 0 0
27-06-2020 25.6 (17:40) 12 (00:00) 18.8 10.83 (17:40) 5 (17:50) 0 0 0 0 0
26-06-2020 25.5 (16:10) 11.1 (00:00) 18.3 10.83 (16:30) 5.28 (16:40) 0 0 0 0 0
25-06-2020 30.2 (16:50) 14.8 (00:00) 22.5 10.56 (14:30) 6.39 (14:30) 0 0 0 0 0
24-06-2020 33.1 (15:00) 16.3 (00:00) 24.7 12.5 (18:00) 6.67 (16:00) 0 0 0 0 0
23-06-2020 34.6 (16:50) 14.7 (00:00) 24.6 12.22 (18:00) 5 (18:10) 0 0 0 0 0
22-06-2020 33 (18:50) 13.7 (00:00) 23.3 10 (12:30) 5.83 (08:40) 0 0 0 0 0
21-06-2020 28.4 (18:50) 9.9 (00:00) 19.1 6.67 (11:20) 3.89 (15:00) 0 0 0 0 0
20-06-2020 28 (16:50) 9.9 (00:00) 18.9 8.89 (18:00) 5 (18:50) 0 0 0 0 0
19-06-2020 26 (19:00) 8.2 (00:00) 17.1 9.72 (17:30) 3.89 (16:50) 0 0 0 0 0
18-06-2020 23.8 (18:00) 8.4 (07:10) 16.1 8.06 (18:30) 4.72 (18:00) 0 0 0 0 0
17-06-2020 22.3 (18:30) 7.8 (00:00) 15 7.22 (16:50) 4.17 (19:20) 0 0 0 0 0
16-06-2020 20.8 (18:20) 10.7 (00:00) 15.7 10.56 (17:20) 6.39 (17:20) 0.2 0 0 0.2 0
15-06-2020 21.3 (16:30) 11 (00:00) 16.1 9.72 (17:40) 5.56 (17:00) 0 0 0 0 0
14-06-2020 20.1 (16:30) 7.3 (00:00) 13.7 9.44 (17:30) 5 (20:10) 0 0 0 0 0
13-06-2020 18.1 (16:00) 7.8 (00:00) 13 9.17 (15:00) 5.28 (13:00) 0 0 0 0 0
12-06-2020 15 (18:30) 7.8 (00:00) 11.4 14.44 (18:40) 8.33 (16:30) 8.6 0 0 6.6 2
11-06-2020 19.4 (16:00) 8.2 (00:00) 13.8 16.11 (17:30) 10 (17:40) 0 0 0 0 0
10-06-2020 24.2 (18:20) 6.7 (00:00) 15.5 9.44 (19:20) 5.28 (19:40) 0 0 0 0 0
09-06-2020 22 (17:20) 6.5 (00:00) 14.3 8.33 (03:40) 5.83 (10:00) 0 0 0 0 0
08-06-2020 20.3 (18:40) 5.9 (07:10) 13.1 10 (15:00) 6.67 (09:20) 0 0 0 0 0
07-06-2020 20.8 (17:40) 11 (00:00) 15.9 8.89 (18:30) 5 (20:30) 0 0 0 0 0
06-06-2020 23.6 (18:20) 9.1 (00:00) 16.4 8.89 (15:50) 5 (17:30) 0 0 0 0 0

Gráficas

Temp. máximas Temp. mínimas Temp. medias Precipitaciones Rachas de viento máximas Velocidades máximas media en intervalos de 10 minutos

Datos horarios

Fecha y hora oficial Temperatura (ºC) Velocidad del viento (km/h) Dirección del viento Racha (km/h) Dirección de racha Precipitación (mm) Presión (hPa) Tendencia (hPa) Humedad (%)
2020-07-05 23:00:00 24.7 4 Este 7 Nordeste 0 -- -- 34
2020-07-05 22:00:00 27.3 7 Nordeste 15 Norte 0 -- -- 30
2020-07-05 21:00:00 31.5 11 Norte 27 Noroeste 0 -- -- 25
2020-07-05 20:00:00 33.1 17 Norte 25 Norte 0 -- -- 22
2020-07-05 19:00:00 34.1 9 Noroeste 22 Norte 0 -- -- 18
2020-07-05 18:00:00 34.3 9 Oeste 22 Sudoeste 0 -- -- 19
2020-07-05 17:00:00 33.9 8 Sudoeste 21 Oeste 0 -- -- 17
2020-07-05 16:00:00 33.3 8 Sudoeste 24 Oeste 0 -- -- 19
2020-07-05 15:00:00 32.6 10 Sudoeste 23 Noroeste 0 -- -- 20
2020-07-05 14:00:00 31.6 11 Este 22 Sudeste 0 -- -- 22
2020-07-05 13:00:00 30.5 8 Este 28 Nordeste 0 -- -- 26
2020-07-05 12:00:00 28.4 17 Nordeste 26 Este 0 -- -- 32
2020-07-05 11:00:00 25.8 14 Nordeste 21 Este 0 -- -- 36
2020-07-05 10:00:00 22.4 14 Nordeste 23 Este 0 -- -- 41
2020-07-05 09:00:00 19.4 17 Este 25 Este 0 -- -- 46
2020-07-05 08:00:00 16.4 8 Este 14 Nordeste 0 -- -- 52
2020-07-05 07:00:00 14.7 8 Este 15 Este 0 -- -- 53
2020-07-05 06:00:00 15.1 6 Este 19 Este 0 -- -- 50
2020-07-05 05:00:00 14.7 9 Este 13 Este 0 -- -- 53
2020-07-05 04:00:00 15.8 10 Este 15 Este 0 -- -- 49
2020-07-05 03:00:00 17.2 6 Este 18 Este 0 -- -- 45
2020-07-05 02:00:00 18.2 10 Este 13 Este 0 -- -- 43
2020-07-05 01:00:00 19.3 10 Este 13 Este 0 -- -- 39
2020-07-05 00:00:00 20.6 10 Este 13 Este 0 -- -- 35
2020-07-04 23:00:00 21.5 9 Nordeste 13 Nordeste 0 -- -- 34
2020-07-04 22:00:00 24.2 11 Nordeste 13 Norte 0 -- -- 29
2020-07-04 21:00:00 28.6 12 Norte 18 Nordeste 0 -- -- 24
2020-07-04 20:00:00 31 12 Nordeste 19 Nordeste 0 -- -- 20
2020-07-04 19:00:00 31.1 6 Nordeste 20 Nordeste 0 -- -- 20
2020-07-04 18:00:00 30.8 9 Este 22 Nordeste 0 -- -- 20
2020-07-04 17:00:00 31 9 Norte 22 Nordeste 0 -- -- 21
2020-07-04 16:00:00 30.3 14 Norte 22 Nordeste 0 -- -- 22
2020-07-04 15:00:00 29.2 9 Norte 21 Noroeste 0 -- -- 24
2020-07-04 14:00:00 28.1 8 Este 24 Nordeste 0 -- -- 25
2020-07-04 13:00:00 27.4 12 Nordeste 31 Nordeste 0 -- -- 28
2020-07-04 12:00:00 25.8 17 Este 26 Este 0 -- -- 32
2020-07-04 11:00:00 23.2 16 Nordeste 24 Nordeste 0 -- -- 37
2020-07-04 10:00:00 19.9 13 Nordeste 18 Nordeste 0 -- -- 43
2020-07-04 09:00:00 17.2 10 Este 17 Este 0 -- -- 47
2020-07-04 08:00:00 13.2 8 Nordeste 12 Nordeste 0 -- -- 59
2020-07-04 07:00:00 10.2 4 Este 12 Este 0 -- -- 68
2020-07-04 06:00:00 12 5 Sudeste 9 Este 0 -- -- 60
2020-07-04 05:00:00 12 0 Calma 7 Nordeste 0 -- -- 60
2020-07-04 04:00:00 11.7 0 Calma 0 Calma 0 -- -- 63
2020-07-04 03:00:00 12.7 0 Calma 6 Nordeste 0 -- -- 58
2020-07-04 02:00:00 15 5 Oeste 15 Este 0 -- -- 51
2020-07-04 01:00:00 17.7 11 Este 13 Este 0 -- -- 42
2020-07-04 00:00:00 17.9 5 Este 8 Este 0 -- -- 42
2020-07-03 23:00:00 19.7 0 Calma 9 Norte 0 -- -- 39
2020-07-03 22:00:00 22.5 8 Norte 17 Norte 0 -- -- 33
2020-07-03 21:00:00 26.7 12 Norte 22 Norte 0 -- -- 28
2020-07-03 20:00:00 28.1 10 Norte 19 Noroeste 0 -- -- 25
2020-07-03 19:00:00 28.4 10 Norte 24 Nordeste 0 -- -- 23
2020-07-03 18:00:00 28 10 Norte 22 Norte 0 -- -- 23
2020-07-03 17:00:00 27.3 11 Este 26 Nordeste 0 -- -- 26
2020-07-03 16:00:00 27 8 Nordeste 24 Nordeste 0 -- -- 31
2020-07-03 15:00:00 25.5 11 Nordeste 24 Este 0 -- -- 33
2020-07-03 14:00:00 24 12 Nordeste 28 Nordeste 0 -- -- 37
2020-07-03 13:00:00 22.5 15 Nordeste 28 Nordeste 0 -- -- 44
2020-07-03 12:00:00 20.6 16 Nordeste 27 Nordeste 0 -- -- 52
2020-07-03 11:00:00 17.8 14 Nordeste 23 Nordeste 0 -- -- 60
2020-07-03 10:00:00 15.5 15 Nordeste 23 Nordeste 0 -- -- 68
2020-07-03 09:00:00 13.4 16 Nordeste 26 Nordeste 0 -- -- 76
2020-07-03 08:00:00 10.9 12 Este 18 Este 0 -- -- 85
2020-07-03 07:00:00 8.9 5 Nordeste 8 Nordeste 0 -- -- 90
2020-07-03 06:00:00 8.9 3 Nordeste 7 Nordeste 0 -- -- 88
2020-07-03 05:00:00 9.3 3 Nordeste 6 Nordeste 0 -- -- 82
2020-07-03 04:00:00 10 0 Calma 5 Noroeste 0 -- -- 78
2020-07-03 03:00:00 11 0 Calma 3 Noroeste 0 -- -- 75
2020-07-03 02:00:00 12.2 0 Calma 8 Oeste 0 -- -- 71
2020-07-03 01:00:00 13.7 5 Oeste 8 Noroeste 0 -- -- 64
2020-07-03 00:00:00 15.3 4 Oeste 12 Noroeste 0 -- -- 60
2020-07-02 23:00:00 17.2 9 Noroeste 18 Noroeste 0 -- -- 55
2020-07-02 22:00:00 19.8 12 Noroeste 22 Oeste 0 -- -- 47
2020-07-02 21:00:00 22.7 14 Oeste 32 Noroeste 0 -- -- 30
2020-07-02 20:00:00 23.9 18 Noroeste 33 Noroeste 0 -- -- 33
2020-07-02 19:00:00 25.1 19 Noroeste 34 Noroeste 0 -- -- 34
2020-07-02 18:00:00 25.7 18 Oeste 31 Oeste 0 -- -- 33
2020-07-02 17:00:00 25.6 13 Oeste 31 Sudoeste 0 -- -- 35
2020-07-02 16:00:00 24.8 15 Oeste 32 Oeste 0 -- -- 40
2020-07-02 15:00:00 24 18 Oeste 30 Oeste 0 -- -- 42
2020-07-02 14:00:00 23 14 Oeste 30 Oeste 0 -- -- 43
2020-07-02 13:00:00 22.4 13 Sudoeste 22 Oeste 0 -- -- 51
2020-07-02 12:00:00 20.9 8 Oeste 22 Noroeste 0 -- -- 58
2020-07-02 11:00:00 19.6 9 Noroeste 16 Oeste 0 -- -- 61
2020-07-02 10:00:00 17.7 5 Noroeste 12 Oeste 0 -- -- 71
2020-07-02 09:00:00 15.9 6 Oeste 11 Oeste 0 -- -- 79
2020-07-02 08:00:00 13.9 3 Sudoeste 6 Sudoeste 0 -- -- 88
2020-07-02 07:00:00 12.3 4 Sudoeste 5 Sudoeste 0 -- -- 91
2020-07-02 06:00:00 13.1 4 Sudoeste 6 Sudoeste 0 -- -- 89
2020-07-02 05:00:00 13.5 4 Sur 6 Oeste 0 -- -- 87
2020-07-02 04:00:00 14.5 5 Sudoeste 8 Sudoeste 0 -- -- 84
2020-07-02 03:00:00 15.4 4 Sudoeste 9 Sudoeste 0 -- -- 81
2020-07-02 02:00:00 16 6 Sudoeste 9 Sudoeste 0 -- -- 77
2020-07-02 01:00:00 17.1 0 Calma 9 Sudoeste 0 -- -- 74
2020-07-02 00:00:00 18.8 7 Oeste 17 Oeste 0 -- -- 65
2020-07-01 23:00:00 20.4 9 Oeste 19 Oeste 0 -- -- 55
2020-07-01 22:00:00 22.7 12 Oeste 30 Oeste 0 -- -- 50
2020-07-01 21:00:00 25.6 19 Oeste 32 Noroeste 0 -- -- 45
2020-07-01 20:00:00 27.5 22 Noroeste 33 Noroeste 0 -- -- 41
2020-07-01 19:00:00 29.1 16 Oeste 37 Oeste 0 -- -- 35
2020-07-01 18:00:00 29.9 18 Oeste 35 Sudoeste 0 -- -- 30
2020-07-01 17:00:00 29.4 16 Oeste 33 Sudoeste 0 -- -- 33
2020-07-01 16:00:00 28.9 15 Oeste 33 Sudoeste 0 -- -- 35
2020-07-01 15:00:00 28.2 14 Sudoeste 27 Sudoeste 0 -- -- 37
2020-07-01 14:00:00 27.1 14 Oeste 24 Oeste 0 -- -- 37
2020-07-01 13:00:00 24.8 11 Oeste 22 Oeste 0 -- -- 54
2020-07-01 12:00:00 22.5 10 Oeste 24 Sudoeste 0 -- -- 64
2020-07-01 11:00:00 19.8 12 Oeste 21 Oeste 0 -- -- 75
2020-07-01 10:00:00 17.5 10 Sudoeste 20 Sudoeste 0 -- -- 88
2020-07-01 09:00:00 17 13 Sudoeste 20 Sudoeste 0 -- -- 87
2020-07-01 08:00:00 15.8 8 Sudoeste 14 Sudoeste 0 -- -- 89
2020-07-01 07:00:00 15.1 9 Sudoeste 15 Sudoeste 0 -- -- 89
2020-07-01 06:00:00 15.7 9 Sudoeste 13 Sudoeste 0 -- -- 86
2020-07-01 05:00:00 16.1 7 Sudoeste 11 Sudoeste 0 -- -- 84
2020-07-01 04:00:00 16.9 6 Sudoeste 15 Sudoeste 0 -- -- 80
2020-07-01 03:00:00 17.5 9 Sudoeste 21 Sudoeste 0 -- -- 78
2020-07-01 02:00:00 18.8 12 Sur 18 Sur 0 -- -- 72
2020-07-01 01:00:00 20.1 8 Sudoeste 15 Sudoeste 0 -- -- 67
2020-07-01 00:00:00 21.5 9 Sudoeste 15 Sudoeste 0 -- -- 59
2020-06-30 23:00:00 23.7 9 Oeste 20 Oeste 0 -- -- 50
2020-06-30 22:00:00 26.5 10 Oeste 26 Sudoeste 0 -- -- 46
2020-06-30 21:00:00 30.5 12 Sudoeste 29 Sur 0 -- -- 25
2020-06-30 20:00:00 31.8 16 Sudoeste 31 Sudoeste 0 -- -- 24
2020-06-30 19:00:00 32.6 19 Sudoeste 33 Sudoeste 0 -- -- 23
2020-06-30 18:00:00 32.9 20 Sur 33 Sur 0 -- -- 24
2020-06-30 17:00:00 33.2 18 Sudoeste 37 Sur 0 -- -- 23
2020-06-30 16:00:00 32.7 19 Sudoeste 38 Sudoeste 0 -- -- 24
2020-06-30 15:00:00 32.4 17 Sudoeste 40 Sudoeste 0 -- -- 27
2020-06-30 14:00:00 31.9 16 Oeste 33 Oeste 0 -- -- 31
2020-06-30 13:00:00 30.6 14 Sudoeste 27 Sudoeste 0 -- -- 34
2020-06-30 12:00:00 28.9 8 Oeste 14 Sudoeste 0 -- -- 41
2020-06-30 11:00:00 26.7 5 Norte 13 Nordeste 0 -- -- 48
2020-06-30 10:00:00 23.3 8 Nordeste 18 Este 0 -- -- 57
2020-06-30 09:00:00 20.6 13 Este 24 Nordeste 0 -- -- 65
2020-06-30 08:00:00 18.7 18 Este 24 Este 0 -- -- 72
2020-06-30 07:00:00 16.6 14 Este 21 Este 0 -- -- 77
2020-06-30 06:00:00 16.3 5 Nordeste 15 Nordeste 0 -- -- 74
2020-06-30 05:00:00 16.3 11 Este 15 Este 0 -- -- 72
2020-06-30 04:00:00 16.2 2 Sudeste 8 Este 0 -- -- 70
2020-06-30 03:00:00 16.9 3 Sudeste 6 Sudeste 0 -- -- 69
2020-06-30 02:00:00 18.4 6 Sudeste 9 Este 0 -- -- 63
2020-06-30 01:00:00 19.8 8 Este 9 Este 0 -- -- 58
2020-06-30 00:00:00 19.4 0 Calma 6 Este 0 -- -- 59
2020-06-29 23:00:00 21.4 0 Calma 5 Noroeste 0 -- -- 53
2020-06-29 22:00:00 26.3 6 Norte 19 Noroeste 0 -- -- 39
2020-06-29 21:00:00 29.9 11 Noroeste 22 Noroeste 0 -- -- 32
2020-06-29 20:00:00 31.1 12 Norte 23 Norte 0 -- -- 31
2020-06-29 19:00:00 31.9 9 Oeste 21 Oeste 0 -- -- 31
2020-06-29 18:00:00 32 9 Oeste 26 Oeste 0 -- -- 31
2020-06-29 17:00:00 31.4 12 Oeste 25 Noroeste 0 -- -- 29
2020-06-29 16:00:00 30.7 12 Oeste 25 Oeste 0 -- -- 31
2020-06-29 15:00:00 29.5 9 Oeste 21 Oeste 0 -- -- 35
2020-06-29 14:00:00 27.9 5 Noroeste 19 Oeste 0 -- -- 39
2020-06-29 13:00:00 26.7 5 Este 14 Sudeste 0 -- -- 46
2020-06-29 12:00:00 24.5 5 Norte 13 Nordeste 0 -- -- 54
2020-06-29 11:00:00 22.9 4 Nordeste 14 Nordeste 0 -- -- 58
2020-06-29 10:00:00 20.8 8 Nordeste 14 Nordeste 0 -- -- 63
2020-06-29 09:00:00 18.5 4 Este 7 Este 0 -- -- 75
2020-06-29 08:00:00 14.7 3 Sudeste 8 Sudeste 0 -- -- 86
2020-06-29 07:00:00 12.5 4 Sudeste 6 Sudeste 0 -- -- 91
2020-06-29 06:00:00 13.1 3 Sudeste 7 Sudeste 0 -- -- 90
2020-06-29 05:00:00 13.8 4 Sudeste 5 Sudeste 0 -- -- 88
2020-06-29 04:00:00 14.4 2 Sudoeste 4 Sur 0 -- -- 86
2020-06-29 03:00:00 15.4 3 Sur 5 Sudoeste 0 -- -- 82
2020-06-29 02:00:00 17.1 3 Oeste 7 Oeste 0 -- -- 76
2020-06-29 01:00:00 18.4 4 Oeste 14 Noroeste 0 -- -- 72
2020-06-29 00:00:00 19.6 9 Noroeste 13 Noroeste 0 -- -- 69
2020-06-28 23:00:00 21.2 6 Noroeste 19 Noroeste 0 -- -- 64
2020-06-28 22:00:00 23.7 14 Noroeste 26 Noroeste 0 -- -- 56
2020-06-28 21:00:00 26.8 17 Noroeste 26 Noroeste 0 -- -- 46
2020-06-28 20:00:00 28.4 13 Oeste 24 Noroeste 0 -- -- 40
2020-06-28 19:00:00 28.6 12 Noroeste 23 Oeste 0 -- -- 40
2020-06-28 18:00:00 28.7 11 Noroeste 27 Oeste 0 -- -- 39
2020-06-28 17:00:00 28.3 12 Noroeste 24 Noroeste 0 -- -- 39
2020-06-28 16:00:00 27.6 14 Oeste 26 Oeste 0 -- -- 41
2020-06-28 15:00:00 26.6 9 Oeste 22 Noroeste 0 -- -- 45
2020-06-28 14:00:00 25.4 10 Oeste 32 Oeste 0 -- -- 49
2020-06-28 13:00:00 24.1 9 Oeste 20 Oeste 0 -- -- 53
2020-06-28 12:00:00 22.6 10 Noroeste 21 Noroeste 0 -- -- 61
2020-06-28 11:00:00 19.9 5 Noroeste 15 Noroeste 0 -- -- 70
2020-06-28 10:00:00 17.9 8 Noroeste 13 Noroeste 0 -- -- 81
2020-06-28 09:00:00 16.1 6 Noroeste 9 Noroeste 0 -- -- 89
2020-06-28 08:00:00 14.3 4 Sur 7 Sudeste 0 -- -- 94
2020-06-28 07:00:00 12.7 4 Sur 6 Sur 0 -- -- 94
2020-06-28 06:00:00 12.8 0 Calma 6 Sudeste 0 -- -- 91
2020-06-28 05:00:00 14.1 4 Sudoeste 7 Sudoeste 0 -- -- 90
2020-06-28 04:00:00 14.4 5 Sur 9 Sur 0 -- -- 89
2020-06-28 03:00:00 14.8 5 Sur 8 Sudoeste 0 -- -- 85
2020-06-28 02:00:00 15.7 5 Sudoeste 6 Oeste 0 -- -- 82
2020-06-28 01:00:00 16.7 4 Oeste 8 Oeste 0 -- -- 78
2020-06-28 00:00:00 17.8 5 Oeste 9 Oeste 0 -- -- 73
2020-06-27 23:00:00 19 3 Sudoeste 11 Oeste 0 -- -- 67
2020-06-27 22:00:00 21.1 7 Noroeste 14 Noroeste 0 -- -- 59
2020-06-27 21:00:00 24 9 Oeste 24 Noroeste 0 -- -- 49
2020-06-27 20:00:00 24.7 15 Noroeste 27 Noroeste 0 -- -- 48
2020-06-27 19:00:00 25.2 15 Noroeste 28 Oeste 0 -- -- 47
2020-06-27 18:00:00 25.3 14 Noroeste 39 Oeste 0 -- -- 47
2020-06-27 17:00:00 24.8 12 Noroeste 31 Oeste 0 -- -- 49
2020-06-27 16:00:00 24.9 15 Oeste 28 Noroeste 0 -- -- 48
2020-06-27 15:00:00 23.9 15 Noroeste 36 Noroeste 0 -- -- 50
2020-06-27 14:00:00 23.4 13 Oeste 27 Oeste 0 -- -- 51
2020-06-27 13:00:00 21.6 10 Oeste 22 Oeste 0 -- -- 57
2020-06-27 12:00:00 19.7 9 Oeste 19 Oeste 0 -- -- 64
2020-06-27 11:00:00 17.4 6 Oeste 17 Oeste 0 -- -- 73
2020-06-27 10:00:00 16.3 6 Noroeste 13 Norte 0 -- -- 77
2020-06-27 09:00:00 15.2 3 Sudoeste 8 Oeste 0 -- -- 84
2020-06-27 08:00:00 13.6 3 Sudoeste 8 Sudoeste 0 -- -- 89
2020-06-27 07:00:00 12 6 Sudoeste 8 Sudoeste 0 -- -- 90
2020-06-27 06:00:00 12.9 5 Sur 10 Sur 0 -- -- 88
2020-06-27 05:00:00 13.5 6 Sur 13 Sur 0 -- -- 86
2020-06-27 04:00:00 13.8 5 Sudoeste 9 Oeste 0 -- -- 84
2020-06-27 03:00:00 14.9 4 Sudoeste 13 Sudoeste 0 -- -- 80
2020-06-27 02:00:00 15.3 0 Calma 13 Oeste 0 -- -- 77
2020-06-27 01:00:00 16.1 5 Oeste 12 Oeste 0 -- -- 74
2020-06-27 00:00:00 16.9 7 Oeste 15 Oeste 0 -- -- 70
2020-06-26 23:00:00 18.3 9 Oeste 28 Oeste 0 -- -- 64
2020-06-26 22:00:00 20.4 16 Noroeste 31 Noroeste 0 -- -- 58
2020-06-26 21:00:00 23.2 17 Oeste 32 Oeste 0 -- -- 49
2020-06-26 20:00:00 24.4 15 Oeste 29 Oeste 0 -- -- 43
2020-06-26 19:00:00 24.9 14 Oeste 29 Oeste 0 -- -- 41
2020-06-26 18:00:00 24.9 15 Oeste 30 Oeste 0 -- -- 36
2020-06-26 17:00:00 25 15 Oeste 39 Sudoeste 0 -- -- 30
2020-06-26 16:00:00 25.2 14 Sudoeste 29 Oeste 0 -- -- 33
2020-06-26 15:00:00 24.1 18 Oeste 30 Oeste 0 -- -- 39
2020-06-26 14:00:00 22.5 13 Oeste 25 Oeste 0 -- -- 45
2020-06-26 13:00:00 20.5 12 Oeste 23 Oeste 0 -- -- 55
2020-06-26 12:00:00 18.3 10 Oeste 19 Oeste 0 -- -- 67
2020-06-26 11:00:00 14.6 6 Sur 18 Sudoeste 0 -- -- 83
2020-06-26 10:00:00 13.2 9 Oeste 17 Sudoeste 0 -- -- 90
2020-06-26 09:00:00 12.4 11 Sudoeste 18 Oeste 0 -- -- 93
2020-06-26 08:00:00 11.5 7 Sudoeste 14 Oeste 0 -- -- 96
2020-06-26 07:00:00 11.2 9 Sudoeste 14 Sudoeste 0 -- -- 95
2020-06-26 06:00:00 11.9 7 Sudoeste 12 Sudoeste 0 -- -- 94
2020-06-26 05:00:00 12.6 6 Sudoeste 14 Sudoeste 0 -- -- 93
2020-06-26 04:00:00 13.9 10 Sudoeste 17 Oeste 0 -- -- 92
2020-06-26 03:00:00 14.8 6 Sudoeste 12 Sudoeste 0 -- -- 91
2020-06-26 02:00:00 16.1 6 Sudoeste 15 Sudoeste 0 -- -- 87
2020-06-26 01:00:00 17.5 9 Sudoeste 17 Sudoeste 0 -- -- 82
2020-06-26 00:00:00 18.8 9 Sudoeste 17 Oeste 0 -- -- 77
2020-06-25 23:00:00 21.1 13 Oeste 23 Oeste 0 -- -- 66
2020-06-25 22:00:00 23.7 8 Oeste 21 Oeste 0 -- -- 48
2020-06-25 21:00:00 27.1 10 Oeste 23 Oeste 0 -- -- 40
2020-06-25 20:00:00 28.7 12 Oeste 28 Sudoeste 0 -- -- 35
2020-06-25 19:00:00 29.5 17 Sudoeste 31 Sudoeste 0 -- -- 32
2020-06-25 18:00:00 30.1 18 Sudoeste 35 Sudoeste 0 -- -- 32
2020-06-25 17:00:00 30.1 15 Sudoeste 36 Sudoeste 0 -- -- 30
2020-06-25 16:00:00 29.7 19 Sudoeste 35 Sudoeste 0 -- -- 32
2020-06-25 15:00:00 29.5 18 Sudoeste 38 Sur 0 -- -- 32
2020-06-25 14:00:00 29 21 Sudoeste 32 Sudoeste 0 -- -- 31
2020-06-25 13:00:00 28 17 Sudoeste 33 Sudoeste 0 -- -- 38
2020-06-25 12:00:00 27.6 18 Sudoeste 31 Oeste 0 -- -- 37
2020-06-25 11:00:00 25.3 9 Sudoeste 16 Sudoeste 0 -- -- 52
2020-06-25 10:00:00 22.2 6 Sudoeste 11 Sudoeste 0 -- -- 64
2020-06-25 09:00:00 19.6 3 Sudoeste 11 Sudoeste 0 -- -- 76
2020-06-25 08:00:00 17 5 Sur 8 Sudoeste 0 -- -- 82
2020-06-25 07:00:00 15.4 0 Calma 8 Este 0 -- -- 73
2020-06-25 06:00:00 17.7 6 Este 18 Este 0 -- -- 64
2020-06-25 05:00:00 18.8 12 Este 24 Este 0 -- -- 60
2020-06-25 04:00:00 19.5 14 Este 25 Este 0 -- -- 58
2020-06-25 03:00:00 19.4 13 Este 17 Este 0 -- -- 62
2020-06-25 02:00:00 19.4 10 Nordeste 23 Nordeste 0 -- -- 63
2020-06-25 01:00:00 19.7 8 Nordeste 26 Norte 0 -- -- 61
2020-06-25 00:00:00 20 0 Calma 10 Sudoeste 0 -- -- 62
2020-06-24 23:00:00 20.9 0 Calma 10 Noroeste 0 -- -- 60
2020-06-24 22:00:00 23.8 5 Este 15 Este 0 -- -- 50
2020-06-24 21:00:00 26.4 9 Este 19 Este 0 -- -- 45
2020-06-24 20:00:00 27.4 14 Nordeste 28 Nordeste 0 -- -- 42
2020-06-24 19:00:00 27 16 Nordeste 33 Norte 0 -- -- 42
2020-06-24 18:00:00 28.8 24 Oeste 45 Oeste 0 -- -- 42
2020-06-24 17:00:00 32.5 17 Sur 36 Sudoeste 0 -- -- 31
2020-06-24 16:00:00 32.8 24 Sur 42 Sur 0 -- -- 31
2020-06-24 15:00:00 33.1 22 Sur 34 Sur 0 -- -- 29
2020-06-24 14:00:00 31.4 9 Sudoeste 21 Sur 0 -- -- 33
2020-06-24 13:00:00 29.7 9 Sudoeste 18 Noroeste 0 -- -- 41
2020-06-24 12:00:00 27.4 8 Oeste 18 Oeste 0 -- -- 49
2020-06-24 11:00:00 25.1 8 Oeste 14 Sudoeste 0 -- -- 54
2020-06-24 10:00:00 23.5 6 Oeste 10 Sudoeste 0 -- -- 59
2020-06-24 09:00:00 20 8 Sudoeste 34 Sudeste 0 -- -- 73
2020-06-24 08:00:00 19.6 4 Oeste 15 Sudoeste 0 -- -- 75
2020-06-24 07:00:00 17.5 10 Sur 14 Sur 0 -- -- 84
2020-06-24 06:00:00 16.4 7 Nordeste 10 Nordeste 0 -- -- 86
2020-06-24 05:00:00 19 8 Sudoeste 14 Sudoeste 0 -- -- 77
2020-06-24 04:00:00 19.6 10 Sudoeste 15 Sudoeste 0 -- -- 76
2020-06-24 03:00:00 20 8 Sur 14 Sur 0 -- -- 70
2020-06-24 02:00:00 20.8 8 Sudoeste 13 Sudoeste 0 -- -- 61
2020-06-24 01:00:00 21.8 8 Sudoeste 10 Sudoeste 0 -- -- 54
2020-06-24 00:00:00 21.8 5 Sur 16 Sudoeste 0 -- -- 52
2020-06-23 23:00:00 22.7 0 Calma 8 Sudeste 0 -- -- 50
2020-06-23 22:00:00 26.2 7 Sudeste 10 Sudeste 0 -- -- 43
2020-06-23 21:00:00 32 6 Sudoeste 19 Oeste 0 -- -- 27
2020-06-23 20:00:00 33.5 7 Sudoeste 26 Sudoeste 0 -- -- 24
2020-06-23 19:00:00 33.8 14 Sudoeste 28 Sudoeste 0 -- -- 23
2020-06-23 18:00:00 34.2 16 Oeste 44 Oeste 0 -- -- 23
2020-06-23 17:00:00 34.5 14 Sudoeste 27 Sudoeste 0 -- -- 22
2020-06-23 16:00:00 33.7 10 Sudoeste 27 Oeste 0 -- -- 25
2020-06-23 15:00:00 33.3 8 Sudoeste 21 Sudoeste 0 -- -- 24
2020-06-23 14:00:00 32.3 9 Sudoeste 20 Sudoeste 0 -- -- 28
2020-06-23 13:00:00 31.2 8 Oeste 16 Oeste 0 -- -- 32
2020-06-23 12:00:00 29.2 4 Oeste 11 Noroeste 0 -- -- 35
2020-06-23 11:00:00 26.4 4 Norte 12 Nordeste 0 -- -- 39
2020-06-23 10:00:00 23.5 8 Nordeste 14 Nordeste 0 -- -- 47
2020-06-23 09:00:00 19.9 8 Nordeste 10 Este 0 -- -- 54
2020-06-23 08:00:00 16.7 6 Nordeste 9 Nordeste 0 -- -- 61
2020-06-23 07:00:00 15 6 Nordeste 13 Este 0 -- -- 64
2020-06-23 06:00:00 15.4 5 Nordeste 14 Este 0 -- -- 62
2020-06-23 05:00:00 17.6 11 Este 18 Este 0 -- -- 53
2020-06-23 04:00:00 18.1 8 Este 17 Este 0 -- -- 52
2020-06-23 03:00:00 19.6 11 Este 21 Este 0 -- -- 46
2020-06-23 02:00:00 20.8 16 Este 23 Este 0 -- -- 45
2020-06-23 01:00:00 19.6 11 Este 17 Este 0 -- -- 52
2020-06-23 00:00:00 22.5 8 Este 17 Este 0 -- -- 42
2020-06-22 23:00:00 23.6 12 Este 14 Este 0 -- -- 42
2020-06-22 22:00:00 25.7 12 Nordeste 19 Norte 0 -- -- 37
2020-06-22 21:00:00 31.2 7 Noroeste 12 Noroeste 0 -- -- 30
2020-06-22 20:00:00 32.4 10 Noroeste 17 Oeste 0 -- -- 26
2020-06-22 19:00:00 33 7 Oeste 23 Nordeste 0 -- -- 21
2020-06-22 18:00:00 32.3 8 Este 25 Sudeste 0 -- -- 24
2020-06-22 17:00:00 32.3 11 Nordeste 23 Nordeste 0 -- -- 27
2020-06-22 16:00:00 31.7 12 Nordeste 25 Nordeste 0 -- -- 28
2020-06-22 15:00:00 30.9 10 Nordeste 28 Este 0 -- -- 30
2020-06-22 14:00:00 30.3 16 Nordeste 31 Este 0 -- -- 32
2020-06-22 13:00:00 28.7 20 Nordeste 36 Este 0 -- -- 34
2020-06-22 12:00:00 26.4 19 Nordeste 28 Nordeste 0 -- -- 42
2020-06-22 11:00:00 23.3 19 Nordeste 28 Este 0 -- -- 53
2020-06-22 10:00:00 19.8 18 Este 29 Este 0 -- -- 65
2020-06-22 09:00:00 16.7 18 Este 28 Este 0 -- -- 78
2020-06-22 08:00:00 14.6 14 Este 21 Nordeste 0 -- -- 86
2020-06-22 07:00:00 13.7 13 Este 19 Este 0 -- -- 89
2020-06-22 06:00:00 14 10 Este 15 Este 0 -- -- 88
2020-06-22 05:00:00 13.9 7 Este 14 Este 0 -- -- 87
2020-06-22 04:00:00 14.3 3 Sudeste 8 Nordeste 0 -- -- 85
2020-06-22 03:00:00 14.9 4 Este 6 Nordeste 0 -- -- 83
2020-06-22 02:00:00 15.5 0 Calma 0 Calma 0 -- -- 81
2020-06-22 01:00:00 16.2 0 Calma -- -- 0 -- -- 79
2020-06-22 00:00:00 18.8 0 Calma 5 Noroeste 0 -- -- 68
2020-06-21 23:00:00 20.6 0 Calma 11 Noroeste 0 -- -- 61
2020-06-21 22:00:00 22.9 7 Noroeste 19 Noroeste 0 -- -- 54
2020-06-21 21:00:00 26.4 13 Noroeste 20 Noroeste 0 -- -- 43
2020-06-21 20:00:00 27.9 10 Noroeste 19 Noroeste 0 -- -- 33
2020-06-21 19:00:00 28.2 10 Noroeste 21 Oeste 0 -- -- 28
2020-06-21 18:00:00 27.8 11 Noroeste 22 Noroeste 0 -- -- 28
2020-06-21 17:00:00 27.1 9 Noroeste 21 Noroeste 0 -- -- 28
2020-06-21 16:00:00 26.5 13 Noroeste 24 Noroeste 0 -- -- 33
2020-06-21 15:00:00 25.7 14 Noroeste 22 Noroeste 0 -- -- 36
2020-06-21 14:00:00 24.2 10 Noroeste 24 Noroeste 0 -- -- 41
2020-06-21 13:00:00 22.7 8 Noroeste 18 Noroeste 0 -- -- 44
2020-06-21 12:00:00 21.2 9 Norte 24 Oeste 0 -- -- 52
2020-06-21 11:00:00 19 7 Noroeste 15 Oeste 0 -- -- 58
2020-06-21 10:00:00 16.6 5 Noroeste 12 Noroeste 0 -- -- 68
2020-06-21 09:00:00 14.6 3 Oeste 6 Oeste 0 -- -- 80
2020-06-21 08:00:00 12.1 4 Sur 6 Sur 0 -- -- 93
2020-06-21 07:00:00 10.1 4 Sudoeste 10 Sudeste 0 -- -- 92
2020-06-21 06:00:00 10.6 4 Sur 6 Sudoeste 0 -- -- 90
2020-06-21 05:00:00 11.3 0 Calma 6 Sur 0 -- -- 86
2020-06-21 04:00:00 12.8 5 Sudoeste 9 Sudoeste 0 -- -- 82
2020-06-21 03:00:00 13.6 6 Sudoeste 12 Sudoeste 0 -- -- 79
2020-06-21 02:00:00 14.7 8 Sudoeste 12 Sudoeste 0 -- -- 75
2020-06-21 01:00:00 15.7 6 Sudoeste 13 Oeste 0 -- -- 70
2020-06-21 00:00:00 16.8 7 Oeste 10 Oeste 0 -- -- 67
2020-06-20 23:00:00 18.9 5 Oeste 18 Noroeste 0 -- -- 59
2020-06-20 22:00:00 21.6 11 Noroeste 23 Noroeste 0 -- -- 49
2020-06-20 21:00:00 25.3 14 Oeste 25 Oeste 0 -- -- 40
2020-06-20 20:00:00 27 16 Oeste 28 Oeste 0 -- -- 31
2020-06-20 19:00:00 27.4 18 Oeste 31 Oeste 0 -- -- 28
2020-06-20 18:00:00 28 15 Oeste 32 Oeste 0 -- -- 30
2020-06-20 17:00:00 27.7 17 Oeste 28 Oeste 0 -- -- 29
2020-06-20 16:00:00 27.4 13 Oeste 28 Oeste 0 -- -- 31
2020-06-20 15:00:00 26.1 14 Sudoeste 26 Sudoeste 0 -- -- 36
2020-06-20 14:00:00 24.6 8 Sudoeste 20 Oeste 0 -- -- 42
2020-06-20 13:00:00 23.3 8 Noroeste 13 Sur 0 -- -- 46
2020-06-20 12:00:00 21.8 5 Nordeste 12 Norte 0 -- -- 49
2020-06-20 11:00:00 19.5 2 Norte 9 Noroeste 0 -- -- 58
2020-06-20 10:00:00 16.7 4 Noroeste 8 Oeste 0 -- -- 66
2020-06-20 09:00:00 14.4 3 Oeste 5 Oeste 0 -- -- 75
2020-06-20 08:00:00 11.2 0 Calma 4 Nordeste 0 -- -- 87
2020-06-20 07:00:00 9.9 3 Nordeste 8 Sudeste 0 -- -- 88
2020-06-20 06:00:00 10.7 6 Sudeste 8 Sudeste 0 -- -- 88
2020-06-20 05:00:00 11.9 5 Sur 9 Sudoeste 0 -- -- 83
2020-06-20 04:00:00 12.3 7 Sudoeste 11 Sudoeste 0 -- -- 83
2020-06-20 03:00:00 13.1 8 Sudoeste 12 Sudoeste 0 -- -- 79
2020-06-20 02:00:00 14.1 8 Sudoeste 13 Sudoeste 0 -- -- 70
2020-06-20 01:00:00 14.8 6 Sudoeste 9 Sudoeste 0 -- -- 66
2020-06-20 00:00:00 15.8 6 Oeste 9 Oeste 0 -- -- 60
2020-06-19 23:00:00 17.6 5 Oeste 13 Oeste 0 -- -- 51
2020-06-19 22:00:00 21 7 Oeste 16 Noroeste 0 -- -- 42
2020-06-19 21:00:00 24.2 12 Noroeste 22 Oeste 0 -- -- 36
2020-06-19 20:00:00 25.3 12 Noroeste 24 Oeste 0 -- -- 34
2020-06-19 19:00:00 26 10 Oeste 26 Oeste 0 -- -- 29
2020-06-19 18:00:00 25.9 13 Oeste 35 Oeste 0 -- -- 27
2020-06-19 17:00:00 25.3 12 Oeste 30 Oeste 0 -- -- 28
2020-06-19 16:00:00 24.8 13 Oeste 26 Oeste 0 -- -- 33
2020-06-19 15:00:00 23.8 12 Oeste 24 Oeste 0 -- -- 32
2020-06-19 14:00:00 22.4 10 Oeste 21 Oeste 0 -- -- 38
2020-06-19 13:00:00 20.8 10 Sudoeste 17 Oeste 0 -- -- 47
2020-06-19 12:00:00 19.3 5 Sudoeste 13 Noroeste 0 -- -- 54
2020-06-19 11:00:00 16.8 6 Noroeste 13 Norte 0 -- -- 62
2020-06-19 10:00:00 14.3 6 Noroeste 11 Noroeste 0 -- -- 76
2020-06-19 09:00:00 12.1 5 Noroeste 8 Oeste 0 -- -- 85
2020-06-19 08:00:00 10.5 0 Calma 5 Sudoeste 0 -- -- 91
2020-06-19 07:00:00 8.2 4 Sur 8 Sudeste 0 -- -- 91
2020-06-19 06:00:00 9.1 6 Sur 10 Sudoeste 0 -- -- 89
2020-06-19 05:00:00 10.1 6 Sudoeste 9 Sudoeste 0 -- -- 85
2020-06-19 04:00:00 10.7 5 Sudoeste 8 Sudoeste 0 -- -- 83
2020-06-19 03:00:00 11.2 6 Sudoeste 9 Sudoeste 0 -- -- 82
2020-06-19 02:00:00 11.9 6 Sudoeste 8 Sudoeste 0 -- -- 78
2020-06-19 01:00:00 13 5 Sudoeste 9 Oeste 0 -- -- 73
2020-06-19 00:00:00 14.1 6 Oeste 13 Oeste 0 -- -- 67
2020-06-18 23:00:00 15.9 5 Oeste 13 Oeste 0 -- -- 57
2020-06-18 22:00:00 18.8 8 Oeste 19 Oeste 0 -- -- 45
2020-06-18 21:00:00 22.1 11 Oeste 22 Noroeste 0 -- -- 37
2020-06-18 20:00:00 23.2 11 Noroeste 25 Oeste 0 -- -- 34
2020-06-18 19:00:00 23.4 14 Oeste 29 Noroeste 0 -- -- 35
2020-06-18 18:00:00 23.8 17 Noroeste 28 Oeste 0 -- -- 36
2020-06-18 17:00:00 23.4 11 Noroeste 26 Noroeste 0 -- -- 38
2020-06-18 16:00:00 23.1 12 Oeste 24 Norte 0 -- -- 39
2020-06-18 15:00:00 21 9 Oeste 22 Noroeste 0 -- -- 46
2020-06-18 14:00:00 20.9 8 Oeste 21 Oeste 0 -- -- 47
2020-06-18 13:00:00 19.6 6 Oeste 22 Norte 0 -- -- 51
2020-06-18 12:00:00 18.5 5 Norte 15 Norte 0 -- -- 57
2020-06-18 11:00:00 17 6 Norte 13 Noroeste 0 -- -- 61
2020-06-18 10:00:00 14.6 5 Norte 10 Noroeste 0 -- -- 72
2020-06-18 09:00:00 12 3 Noroeste 6 Noroeste 0 -- -- 81
2020-06-18 08:00:00 10 4 Sudoeste 5 Sur 0 -- -- 89
2020-06-18 07:00:00 8.5 4 Sudoeste 6 Noroeste 0 -- -- 90
2020-06-18 06:00:00 9.1 4 Sudoeste 6 Sudoeste 0 -- -- 88
2020-06-18 05:00:00 9.3 0 Calma 4 Sudoeste 0 -- -- 86
2020-06-18 04:00:00 10.5 3 Oeste 5 Oeste 0 -- -- 82
2020-06-18 03:00:00 11.2 0 Calma 7 Oeste 0 -- -- 79
2020-06-18 02:00:00 13.3 4 Oeste 7 Oeste 0 -- -- 73
2020-06-18 01:00:00 14.3 3 Oeste 10 Oeste 0 -- -- 69
2020-06-18 00:00:00 15.2 8 Oeste 16 Oeste 0 -- -- 65
2020-06-17 23:00:00 15.8 7 Oeste 16 Oeste 0 -- -- 60
2020-06-17 22:00:00 17.6 7 Noroeste 14 Oeste 0 -- -- 53
2020-06-17 21:00:00 19.7 9 Noroeste 20 Oeste 0 -- -- 45
2020-06-17 20:00:00 21.3 8 Noroeste 23 Oeste 0 -- -- 41
2020-06-17 19:00:00 21.4 14 Noroeste 22 Oeste 0 -- -- 39
2020-06-17 18:00:00 21.5 8 Noroeste 21 Noroeste 0 -- -- 40
2020-06-17 17:00:00 21.8 7 Noroeste 26 Oeste 0 -- -- 42
2020-06-17 16:00:00 20.4 8 Sur 18 Sudoeste 0 -- -- 43
2020-06-17 15:00:00 19.2 8 Norte 23 Noroeste 0 -- -- 47
2020-06-17 14:00:00 18.5 9 Oeste 20 Oeste 0 -- -- 51
2020-06-17 13:00:00 17.3 8 Oeste 14 Oeste 0 -- -- 53
2020-06-17 12:00:00 15.4 6 Noroeste 16 Este 0 -- -- 65
2020-06-17 11:00:00 13.6 4 Nordeste 9 Norte 0 -- -- 73
2020-06-17 10:00:00 11.5 4 Norte 12 Norte 0 -- -- 82
2020-06-17 09:00:00 9.9 5 Noroeste 13 Noroeste 0 -- -- 90
2020-06-17 08:00:00 9 6 Sudoeste 10 Oeste 0 -- -- 92
2020-06-17 07:00:00 8.1 5 Sudoeste 9 Sudoeste 0 -- -- 94
2020-06-17 06:00:00 8.2 6 Sudoeste 9 Sudoeste 0 -- -- 92
2020-06-17 05:00:00 8.5 6 Sudoeste 12 Sudoeste 0 -- -- 90
2020-06-17 04:00:00 8.8 9 Sudoeste 13 Sudoeste 0 -- -- 88
2020-06-17 03:00:00 9.4 6 Sudoeste 9 Sur 0 -- -- 85
2020-06-17 02:00:00 9.4 4 Sur 13 Oeste 0 -- -- 83
2020-06-17 01:00:00 10.7 8 Oeste 17 Oeste 0 -- -- 79
2020-06-17 00:00:00 12.1 11 Oeste 17 Oeste 0 -- -- 72
2020-06-16 23:00:00 13.3 11 Oeste 16 Oeste 0 -- -- 64
2020-06-16 22:00:00 15.2 12 Oeste 31 Oeste 0 -- -- 56
2020-06-16 21:00:00 18.1 18 Oeste 31 Oeste 0 -- -- 52
2020-06-16 20:00:00 19.6 22 Oeste 36 Oeste 0 -- -- 47
2020-06-16 19:00:00 19.5 18 Oeste 37 Oeste 0 -- -- 52
2020-06-16 18:00:00 19.9 21 Oeste 38 Oeste 0 -- -- 52
2020-06-16 17:00:00 19.9 21 Oeste 35 Oeste 0 -- -- 57
2020-06-16 16:00:00 19.1 19 Oeste 34 Sudoeste 0.2 -- -- 55
2020-06-16 15:00:00 18.4 19 Noroeste 30 Oeste 0 -- -- 65
2020-06-16 14:00:00 19.7 15 Oeste 29 Oeste 0 -- -- 53
2020-06-16 13:00:00 18.7 14 Oeste 29 Sudoeste 0 -- -- 55
2020-06-16 12:00:00 17.9 11 Oeste 19 Sudoeste 0 -- -- 58
2020-06-16 11:00:00 15.9 9 Sudoeste 18 Oeste 0 -- -- 68
2020-06-16 10:00:00 14.3 5 Oeste 10 Oeste 0 -- -- 79
2020-06-16 09:00:00 12.8 4 Oeste 9 Sudoeste 0 -- -- 87
2020-06-16 08:00:00 11 5 Sudoeste 9 Sudoeste 0 -- -- 93
2020-06-16 07:00:00 11 5 Oeste 8 Sudoeste 0 -- -- 92
2020-06-16 06:00:00 11.4 4 Sudoeste 6 Sudoeste 0 -- -- 91
2020-06-16 05:00:00 11.6 3 Sudoeste 6 Oeste 0 -- -- 88
2020-06-16 04:00:00 11.5 4 Sudoeste 6 Sudoeste 0 -- -- 86
2020-06-16 03:00:00 11.9 2 Oeste 6 Noroeste 0 -- -- 83
2020-06-16 02:00:00 12.9 3 Oeste 8 Oeste 0 -- -- 79
2020-06-16 01:00:00 13.3 4 Sur 8 Noroeste 0 -- -- 79
2020-06-16 00:00:00 13.6 4 Noroeste 13 Noroeste 0 -- -- 76
2020-06-15 23:00:00 14 9 Noroeste 16 Noroeste 0 -- -- 73
2020-06-15 22:00:00 14.9 7 Noroeste 20 Noroeste 0 -- -- 68
2020-06-15 21:00:00 16.7 14 Noroeste 29 Oeste 0 -- -- 61
2020-06-15 20:00:00 18.3 16 Noroeste 27 Noroeste 0 -- -- 54
2020-06-15 19:00:00 19.3 16 Noroeste 30 Noroeste 0 -- -- 53
2020-06-15 18:00:00 20.1 18 Noroeste 35 Noroeste 0 -- -- 49
2020-06-15 17:00:00 20.5 20 Oeste 31 Oeste 0 -- -- 49
2020-06-15 16:00:00 20.4 16 Oeste 31 Oeste 0 -- -- 50
2020-06-15 15:00:00 19.7 11 Oeste 26 Oeste 0 -- -- 53
2020-06-15 14:00:00 18.6 8 Sudoeste 18 Oeste 0 -- -- 55
2020-06-15 13:00:00 16.9 6 Sur 17 Oeste 0 -- -- 60
2020-06-15 12:00:00 16.3 4 Noroeste 14 Oeste 0 -- -- 64
2020-06-15 11:00:00 14.4 5 Noroeste 13 Noroeste 0 -- -- 71
2020-06-15 10:00:00 13.8 6 Noroeste 14 Oeste 0 -- -- 78
2020-06-15 09:00:00 12.6 6 Noroeste 10 Noroeste 0 -- -- 83
2020-06-15 08:00:00 11.4 2 Oeste 4 Oeste 0 -- -- 92
2020-06-15 07:00:00 11.1 0 Calma 4 Oeste 0 -- -- 89
2020-06-15 06:00:00 11.3 3 Oeste 4 Sudoeste 0 -- -- 89
2020-06-15 05:00:00 11.5 3 Sudoeste 4 Sudoeste 0 -- -- 88
2020-06-15 04:00:00 11.7 3 Sudoeste 5 Sudoeste 0 -- -- 87
2020-06-15 03:00:00 11.7 0 Calma 6 Sudoeste 0 -- -- 87
2020-06-15 02:00:00 11.9 4 Sur 6 Sur 0 -- -- 86
2020-06-15 01:00:00 12 3 Sur 7 Sudoeste 0 -- -- 84
2020-06-15 00:00:00 12 5 Sudoeste 8 Oeste 0 -- -- 82
2020-06-14 23:00:00 13.2 3 Sudoeste 12 Noroeste 0 -- -- 76
2020-06-14 22:00:00 14.4 9 Noroeste 22 Noroeste 0 -- -- 70
2020-06-14 21:00:00 17.4 14 Noroeste 27 Noroeste 0 -- -- 58
2020-06-14 20:00:00 18.7 17 Noroeste 28 Noroeste 0 -- -- 53
2020-06-14 19:00:00 19.4 17 Oeste 28 Oeste 0 -- -- 49
2020-06-14 18:00:00 19.9 14 Noroeste 34 Oeste 0 -- -- 48
2020-06-14 17:00:00 20.1 12 Oeste 30 Oeste 0 -- -- 45
2020-06-14 16:00:00 18.9 13 Oeste 28 Noroeste 0 -- -- 48
2020-06-14 15:00:00 19.1 12 Oeste 24 Oeste 0 -- -- 48
2020-06-14 14:00:00 18 10 Oeste 22 Oeste 0 -- -- 51
2020-06-14 13:00:00 17.4 13 Oeste 24 Oeste 0 -- -- 52
2020-06-14 12:00:00 16.6 6 Sudoeste 16 Oeste 0 -- -- 54
2020-06-14 11:00:00 15 5 Oeste 10 Noroeste 0 -- -- 56
2020-06-14 10:00:00 13.3 4 Sudeste 6 Sur 0 -- -- 69
2020-06-14 09:00:00 11.4 3 Sudeste 8 Sudeste 0 -- -- 80
2020-06-14 08:00:00 8.9 3 Sudeste 9 Sudeste 0 -- -- 94
2020-06-14 07:00:00 7.3 7 Sudeste 9 Sudeste 0 -- -- 93
2020-06-14 06:00:00 7.7 4 Este 5 Este 0 -- -- 93
2020-06-14 05:00:00 8.5 3 Sur 6 Sur 0 -- -- 91
2020-06-14 04:00:00 9.4 5 Sur 6 Sur 0 -- -- 89
2020-06-14 03:00:00 10.6 5 Sur 6 Sudoeste 0 -- -- 87
2020-06-14 02:00:00 9.5 4 Sudoeste 5 Sur 0 -- -- 90
2020-06-14 01:00:00 10.6 2 Oeste 6 Oeste 0 -- -- 80
2020-06-14 00:00:00 11.5 3 Sudoeste 5 Oeste 0 -- -- 80
2020-06-13 23:00:00 11.9 3 Oeste 8 Oeste 0 -- -- 75
2020-06-13 22:00:00 13.7 6 Oeste 23 Oeste 0 -- -- 68
2020-06-13 21:00:00 16 13 Oeste 26 Oeste 0 -- -- 57
2020-06-13 20:00:00 15.8 16 Oeste 28 Oeste 0 -- -- 62
2020-06-13 19:00:00 16.9 13 Oeste 27 Oeste 0 -- -- 56
2020-06-13 18:00:00 17.4 14 Oeste 28 Oeste 0 -- -- 54
2020-06-13 17:00:00 17.7 15 Sudoeste 31 Sudoeste 0 -- -- 51
2020-06-13 16:00:00 18.1 14 Oeste 31 Oeste 0 -- -- 56
2020-06-13 15:00:00 16.2 18 Oeste 33 Sudoeste 0 -- -- 60
2020-06-13 14:00:00 16.8 18 Sudoeste 30 Sudoeste 0 -- -- 56
2020-06-13 13:00:00 15.3 19 Sudoeste 27 Sudoeste 0 -- -- 66
2020-06-13 12:00:00 14.6 14 Oeste 24 Oeste 0 -- -- 67
2020-06-13 11:00:00 13.6 10 Oeste 22 Oeste 0 -- -- 70
2020-06-13 10:00:00 11.8 10 Oeste 23 Oeste 0 -- -- 82
2020-06-13 09:00:00 10.2 8 Sudoeste 14 Sudoeste 0 -- -- 90
2020-06-13 08:00:00 8.9 3 Sudoeste 12 Sudoeste 0 -- -- 95
2020-06-13 07:00:00 8.5 9 Sudoeste 17 Sudoeste 0 -- -- 96
2020-06-13 06:00:00 7.8 7 Sudoeste 19 Sudoeste 0 -- -- 95
2020-06-13 05:00:00 7.8 9 Sudoeste 17 Sudoeste 0 -- -- 95
2020-06-13 04:00:00 8.5 9 Sudoeste 18 Sudoeste 0 -- -- 94
2020-06-13 03:00:00 9.2 10 Sudoeste 22 Sudoeste 0 -- -- 93
2020-06-13 02:00:00 9.8 12 Sudoeste 26 Oeste 0 -- -- 93
2020-06-13 01:00:00 10 16 Sudoeste 26 Sudoeste 0 -- -- 92
2020-06-13 00:00:00 9.8 15 Sudoeste 26 Sudoeste 0 -- -- 92
2020-06-12 23:00:00 10.1 13 Sudoeste 25 Sudoeste 0 -- -- 91
2020-06-12 22:00:00 10.2 15 Oeste 27 Oeste 0.2 -- -- 90
2020-06-12 21:00:00 10.2 20 Oeste 41 Oeste 1.6 -- -- 89
2020-06-12 20:00:00 13.4 17 Oeste 38 Oeste 0 -- -- 73
2020-06-12 19:00:00 11.4 14 Oeste 52 Oeste 0.2 -- -- 86
2020-06-12 18:00:00 13.8 23 Oeste 40 Oeste 0 -- -- 72
2020-06-12 17:00:00 13.3 18 Noroeste 48 Sudoeste 0 -- -- 79
2020-06-12 16:00:00 13.1 22 Sudoeste 38 Oeste 0.4 -- -- 83
2020-06-12 15:00:00 10.7 26 Oeste 39 Sudoeste 2.8 -- -- 90
2020-06-12 14:00:00 10.8 13 Oeste 30 Sudoeste 3.2 -- -- 92
2020-06-12 13:00:00 11.1 18 Oeste 39 Sudoeste 0.2 -- -- 90
2020-06-12 12:00:00 11.1 17 Sudoeste 30 Sudoeste 0 -- -- 85
2020-06-12 11:00:00 10.6 17 Sudoeste 33 Sudoeste 0 -- -- 84
2020-06-12 10:00:00 10.2 17 Sudoeste 33 Sudoeste 0 -- -- 81
2020-06-12 09:00:00 9 17 Sudoeste 30 Sudoeste 0 -- -- 86
2020-06-12 08:00:00 8.9 17 Sudoeste 29 Sudoeste 0 -- -- 83
2020-06-12 07:00:00 8.8 12 Sudoeste 26 Sudoeste 0 -- -- 82
2020-06-12 06:00:00 8.6 13 Sudoeste 25 Sudoeste 0 -- -- 82
2020-06-12 05:00:00 8.3 18 Sudoeste 30 Sudoeste 0 -- -- 83
2020-06-12 04:00:00 7.9 14 Sudoeste 29 Sudoeste 0 -- -- 85
2020-06-12 03:00:00 8.4 17 Sudoeste 31 Sudoeste 0 -- -- 82
2020-06-12 02:00:00 8.7 13 Sudoeste 26 Sudoeste 0 -- -- 77
2020-06-12 01:00:00 9.1 9 Oeste 27 Sudoeste 0 -- -- 74
2020-06-12 00:00:00 10.1 12 Oeste 35 Oeste 0 -- -- 68
2020-06-11 23:00:00 10.7 14 Oeste 31 Oeste 0 -- -- 65
2020-06-11 22:00:00 11.4 18 Oeste 40 Oeste 0 -- -- 61
2020-06-11 21:00:00 14 24 Oeste 47 Oeste 0 -- -- 54
2020-06-11 20:00:00 15.8 28 Oeste 46 Oeste 0 -- -- 52
2020-06-11 19:00:00 16.5 21 Oeste 48 Oeste 0 -- -- 56
2020-06-11 18:00:00 17.8 30 Oeste 58 Oeste 0 -- -- 50
2020-06-11 17:00:00 17.8 27 Oeste 55 Oeste 0 -- -- 56
2020-06-11 16:00:00 19.4 33 Oeste 56 Sudoeste 0 -- -- 47
2020-06-11 15:00:00 18.3 28 Oeste 49 Oeste 0 -- -- 58
2020-06-11 14:00:00 18.2 26 Oeste 41 Sudoeste 0 -- -- 58
2020-06-11 13:00:00 16.9 20 Oeste 37 Oeste 0 -- -- 63
2020-06-11 12:00:00 14.8 17 Oeste 34 Oeste 0 -- -- 71
2020-06-11 11:00:00 13.7 19 Oeste 29 Sudoeste 0 -- -- 74
2020-06-11 10:00:00 12.5 15 Sudoeste 26 Oeste 0 -- -- 77
2020-06-11 09:00:00 10.3 12 Oeste 23 Oeste 0 -- -- 88
2020-06-11 08:00:00 8.9 13 Sudoeste 21 Oeste 0 -- -- 93
2020-06-11 07:00:00 8.4 6 Oeste 16 Oeste 0 -- -- 90
2020-06-11 06:00:00 8.8 8 Sudoeste 15 Sudoeste 0 -- -- 88
2020-06-11 05:00:00 9.5 10 Sudoeste 17 Sudoeste 0 -- -- 86
2020-06-11 04:00:00 10 9 Sudoeste 15 Sudoeste 0 -- -- 82
2020-06-11 03:00:00 10.9 10 Sudoeste 15 Sudoeste 0 -- -- 81
2020-06-11 02:00:00 12.4 9 Sudoeste 16 Sudoeste 0 -- -- 78
2020-06-11 01:00:00 14.1 10 Sudoeste 18 Sur 0 -- -- 71
2020-06-11 00:00:00 14.9 10 Sudoeste 16 Sudoeste 0 -- -- 65
2020-06-10 23:00:00 16.6 10 Oeste 22 Oeste 0 -- -- 62
2020-06-10 22:00:00 18.5 13 Oeste 27 Oeste 0 -- -- 56
2020-06-10 21:00:00 21.6 16 Oeste 28 Oeste 0 -- -- 41
2020-06-10 20:00:00 23.5 14 Oeste 34 Sudoeste 0 -- -- 30
2020-06-10 19:00:00 24 18 Oeste 30 Sudoeste 0 -- -- 36
2020-06-10 18:00:00 23.9 15 Sudoeste 27 Sudoeste 0 -- -- 35
2020-06-10 17:00:00 23.4 14 Sudoeste 33 Sudoeste 0 -- -- 33
2020-06-10 16:00:00 23.4 11 Oeste 31 Oeste 0 -- -- 38
2020-06-10 15:00:00 22.7 16 Oeste 28 Oeste 0 -- -- 35
2020-06-10 14:00:00 22.2 14 Oeste 26 Oeste 0 -- -- 41
2020-06-10 13:00:00 20.8 8 Oeste 19 Sudoeste 0 -- -- 41
2020-06-10 12:00:00 19.2 7 Oeste 13 Oeste 0 -- -- 45
2020-06-10 11:00:00 17.3 4 Norte 10 Norte 0 -- -- 53
2020-06-10 10:00:00 14.4 3 Este 9 Este 0 -- -- 62
2020-06-10 09:00:00 10.6 7 Este 13 Nordeste 0 -- -- 71
2020-06-10 08:00:00 8.4 4 Nordeste 11 Este 0 -- -- 84
2020-06-10 07:00:00 7 6 Este 12 Este 0 -- -- 84
2020-06-10 06:00:00 7.1 0 Calma 7 Sudeste 0 -- -- 86
2020-06-10 05:00:00 8.7 6 Sudeste 8 Este 0 -- -- 79
2020-06-10 04:00:00 9.7 0 Calma 8 Este 0 -- -- 74
2020-06-10 03:00:00 10.7 3 Nordeste 9 Noroeste 0 -- -- 73
2020-06-10 02:00:00 12.8 7 Sudeste 13 Sudeste 0 -- -- 59
2020-06-10 01:00:00 13.2 8 Sudeste 17 Sudeste 0 -- -- 58
2020-06-10 00:00:00 13.5 10 Este 13 Este 0 -- -- 58
2020-06-09 23:00:00 14.7 9 Nordeste 14 Nordeste 0 -- -- 55
2020-06-09 22:00:00 16.8 6 Nordeste 12 Norte 0 -- -- 48
2020-06-09 21:00:00 19.1 8 Norte 18 Norte 0 -- -- 44
2020-06-09 20:00:00 20.4 11 Norte 19 Norte 0 -- -- 39
2020-06-09 19:00:00 21.7 5 Noroeste 18 Noroeste 0 -- -- 34
2020-06-09 18:00:00 21.6 9 Norte 29 Norte 0 -- -- 33
2020-06-09 17:00:00 21.7 7 Noroeste 21 Noroeste 0 -- -- 34
2020-06-09 16:00:00 21 12 Noroeste 22 Oeste 0 -- -- 35
2020-06-09 15:00:00 20.3 12 Noroeste 22 Noroeste 0 -- -- 39
2020-06-09 14:00:00 19.3 9 Oeste 23 Noroeste 0 -- -- 40
2020-06-09 13:00:00 18.4 8 Norte 19 Nordeste 0 -- -- 45
2020-06-09 12:00:00 17.1 8 Este 20 Nordeste 0 -- -- 46
2020-06-09 11:00:00 15.6 16 Nordeste 25 Nordeste 0 -- -- 49
2020-06-09 10:00:00 13.6 21 Este 29 Este 0 -- -- 55
2020-06-09 09:00:00 10.7 18 Este 25 Este 0 -- -- 66
2020-06-09 08:00:00 8.1 9 Este 17 Este 0 -- -- 77
2020-06-09 07:00:00 6.5 8 Este 15 Este 0 -- -- 83
2020-06-09 06:00:00 7.1 7 Este 22 Este 0 -- -- 81
2020-06-09 05:00:00 8.2 15 Este 22 Este 0 -- -- 77
2020-06-09 04:00:00 9.3 15 Este 30 Este 0 -- -- 74
2020-06-09 03:00:00 10 17 Este 26 Este 0 -- -- 77
2020-06-09 02:00:00 10.7 16 Nordeste 23 Nordeste 0 -- -- 74
2020-06-09 01:00:00 11.6 10 Nordeste 14 Nordeste 0 -- -- 65
2020-06-09 00:00:00 12.7 0 Calma 10 Este 0 -- -- 70
2020-06-08 23:00:00 12.4 8 Este 9 Este 0 -- -- 58
2020-06-08 22:00:00 14.7 6 Nordeste 12 Nordeste 0 -- -- 52
2020-06-08 21:00:00 18.4 7 Nordeste 25 Nordeste 0 -- -- 40
2020-06-08 20:00:00 19.4 19 Nordeste 30 Norte 0 -- -- 37
2020-06-08 19:00:00 19.9 17 Nordeste 25 Nordeste 0 -- -- 33
2020-06-08 18:00:00 19 13 Nordeste 27 Nordeste 0 -- -- 37
2020-06-08 17:00:00 18.5 7 Nordeste 28 Norte 0 -- -- 40
2020-06-08 16:00:00 18.7 12 Nordeste 29 Nordeste 0 -- -- 40
2020-06-08 15:00:00 17.8 13 Nordeste 36 Nordeste 0 -- -- 41
2020-06-08 14:00:00 17.5 12 Nordeste 26 Nordeste 0 -- -- 44
2020-06-08 13:00:00 16.7 17 Nordeste 28 Nordeste 0 -- -- 47
2020-06-08 12:00:00 15.8 17 Nordeste 32 Este 0 -- -- 50
2020-06-08 11:00:00 14.3 20 Nordeste 35 Este 0 -- -- 53
2020-06-08 10:00:00 11.9 22 Nordeste 34 Nordeste 0 -- -- 63
2020-06-08 09:00:00 10.6 22 Nordeste 33 Nordeste 0 -- -- 70
2020-06-08 08:00:00 8.2 13 Nordeste 18 Nordeste 0 -- -- 80
2020-06-08 07:00:00 6 6 Nordeste 10 Nordeste 0 -- -- 86
2020-06-08 06:00:00 6.9 8 Este 22 Nordeste 0 -- -- 83
2020-06-08 05:00:00 7.8 15 Nordeste 24 Nordeste 0 -- -- 82
2020-06-08 04:00:00 8.6 16 Este 26 Nordeste 0 -- -- 79
2020-06-08 03:00:00 9.5 16 Nordeste 24 Nordeste 0 -- -- 81
2020-06-08 02:00:00 10.5 15 Nordeste 28 Este 0 -- -- 78
2020-06-08 01:00:00 11 4 Oeste 14 Nordeste 0 -- -- 81
2020-06-08 00:00:00 11.1 8 Sudoeste 15 Oeste 0 -- -- 80
2020-06-07 23:00:00 12.2 8 Sudoeste 14 Oeste 0 -- -- 77
2020-06-07 22:00:00 14.5 8 Oeste 25 Oeste 0 -- -- 67
2020-06-07 21:00:00 17.3 15 Oeste 30 Oeste 0 -- -- 58
2020-06-07 20:00:00 19.3 16 Sudoeste 32 Sudoeste 0 -- -- 53
2020-06-07 19:00:00 18.6 15 Oeste 32 Oeste 0 -- -- 55
2020-06-07 18:00:00 20.7 17 Oeste 30 Oeste 0 -- -- 44
2020-06-07 17:00:00 20 15 Oeste 31 Oeste 0 -- -- 50
2020-06-07 16:00:00 19.3 14 Oeste 29 Oeste 0 -- -- 52
2020-06-07 15:00:00 17.3 12 Oeste 27 Oeste 0 -- -- 67
2020-06-07 14:00:00 15.8 12 Sudoeste 22 Oeste 0 -- -- 71
2020-06-07 13:00:00 14.8 12 Sudoeste 22 Oeste 0 -- -- 74
2020-06-07 12:00:00 14.2 12 Oeste 21 Oeste 0 -- -- 78
2020-06-07 11:00:00 13.6 11 Oeste 23 Oeste 0 -- -- 82
2020-06-07 10:00:00 12.8 9 Oeste 19 Oeste 0 -- -- 86
2020-06-07 09:00:00 12.1 10 Oeste 18 Oeste 0 -- -- 89
2020-06-07 08:00:00 11.9 8 Oeste 16 Oeste 0 -- -- 93
2020-06-07 07:00:00 11.8 10 Sudoeste 18 Oeste 0 -- -- 94
2020-06-07 06:00:00 11.7 8 Sudoeste 14 Sudoeste 0 -- -- 95
2020-06-07 05:00:00 11 5 Sudoeste 11 Sudoeste 0 -- -- 94
2020-06-07 04:00:00 11.3 7 Sudoeste 12 Sudoeste 0 -- -- 93
2020-06-07 03:00:00 11.6 7 Sudoeste 12 Sudoeste 0 -- -- 91
2020-06-07 02:00:00 12.7 7 Sudoeste 16 Oeste 0 -- -- 89
2020-06-07 01:00:00 12.9 9 Sudoeste 17 Sudoeste 0 -- -- 87
2020-06-07 00:00:00 13.5 10 Sudoeste 21 Oeste 0 -- -- 84
2020-06-06 23:00:00 15.1 10 Sudoeste 24 Oeste 0 -- -- 78
2020-06-06 22:00:00 17 9 Oeste 24 Oeste 0 -- -- 70
2020-06-06 21:00:00 18.6 15 Oeste 26 Oeste 0 -- -- 59
2020-06-06 20:00:00 21.1 14 Oeste 32 Oeste 0 -- -- 48
2020-06-06 19:00:00 22.9 17 Oeste 32 Oeste 0 -- -- 38
2020-06-06 18:00:00 23.2 17 Oeste 30 Oeste 0 -- -- 35
2020-06-06 17:00:00 23.1 18 Oeste 31 Oeste 0 -- -- 39
2020-06-06 16:00:00 22.6 16 Oeste 32 Oeste 0 -- -- 47
2020-06-06 15:00:00 21.8 13 Oeste 27 Sudoeste 0 -- -- 53
2020-06-06 14:00:00 21.1 14 Oeste 29 Oeste 0 -- -- 53
2020-06-06 13:00:00 20.4 17 Sudoeste 27 Sudoeste 0 -- -- 45
2020-06-06 12:00:00 19.4 11 Sudoeste 22 Sudoeste 0 -- -- 56
2020-06-06 11:00:00 17.4 8 Sudoeste 16 Oeste 0 -- -- 67
2020-06-06 10:00:00 15.3 8 Oeste 13 Noroeste 0 -- -- 77
2020-06-06 09:00:00 13.6 4 Oeste 9 Sur 0 -- -- 80
2020-06-06 08:00:00 11.3 5 Sudeste 6 Sudeste 0 -- -- 96
2020-06-06 07:00:00 9.3 0 Calma 4 Sudoeste 0 -- -- 94
2020-06-06 06:00:00 10 2 Sur 3 Sudoeste 0 -- -- 93
2020-06-06 05:00:00 10.9 0 Calma 4 Sudeste 0 -- -- 91
2020-06-06 04:00:00 11.9 5 Sur 10 Sur 0 -- -- 87
2020-06-06 03:00:00 12.3 7 Sur 13 Sur 0 -- -- 86
2020-06-06 02:00:00 13 5 Sudoeste 15 Sudoeste 0 -- -- 83
2020-06-06 01:00:00 14 10 Sudoeste 23 Sudoeste 0 -- -- 80
2020-06-06 00:00:00 15.7 10 Sudoeste 21 Sudoeste 0 -- -- 77